Portada
METAR-TAF:

METAR-TAF

Aeroports :

Port Macquarie, Austràlia

latitud: 31-26-09S, longitud: 152-51-48E, altitud: 5 m

Observació

L'informe es va fer fa 1 hora i 50 minuts, a les 14:51 UTC
Vent 1 kt del Nord-Oest
Temperatura 19°C
Humitat 100%
Pressió 1025 hPa
Visibilitat 10 km o més
Núvols disperses a una alçada de 300 ft
Cel ennuvolat a una alçada de 2100 ft
Cel ennuvolat a una alçada de 2500 ft

METAR: YPMQ 191451Z AUTO 31001KT 9999 // SCT003 BKN021 BKN025 19/19 Q1025

Hora: 02:41 (16:41 UTC)


TAF: manca

Observacions i pronòstics meteorològics de més de 4000 aeroports (METAR i TAF).

Les estacions disponibles són els punts grocs i vermells al mapa.

Posi el ratolí al punt desitjat per veure el nom de l'estació.

Feu clic per veure les observacions i els pronòstics meteorològics.

Per canviar el mapa: feu clic els botons verds amb una creu de color negre per apropar; al botó verd amb un guió per allunyar la imatge; o en les fletxes verdes per a mapes adjacents.


METAR-TAF: